Shearwater — WDE5420 — position and weather

sailwx.info

Track history (hours):
 
Tides and Currents Weather Stations Pressure Air Temp Water Temp Dewpoint Dewpoint Depression Visibility Wind Speed Wind Dir Waves Ship Positions

Shearwater

Owner: Hunter, Graham B, Blaine, WA. More information available from US FCC via Universal Licensing System and Coast Guard Vessel Documentation Center.

Last reported at 2016-Jul-28 21:28 UTC. Time now 2016-Jul-30 13:07 UTC.
Position N 47°20' W 122°29'.

Length 9 m.

Type: Sailing vessel. MMSI: 367366470.

Date/timePositionNaut miles runAvg speedWind from/ knotsBaromVisibWave heightAir tempDewpointWater temp
2016-Jul-28 21:28N 47°20' W 122°29'3 3.5
2016-Jul-28 20:33N 47°22' W 122°25'3 2.7
2016-Jul-28 19:34N 47°24' W 122°23'4 4.1
2016-Jul-28 18:33N 47°28' W 122°24'7 3.4
2016-Jul-28 16:33N 47°35' W 122°25'0 0.2
2016-Jul-28 15:32N 47°35' W 122°24'2 2.0
2016-Jul-28 14:33N 47°37' W 122°24'2 0.1
2016-Jul-27 21:33N 47°35' W 122°25'2 2.1
2016-Jul-27 20:33N 47°37' W 122°27'2 2.1
2016-Jul-27 19:34N 47°38' W 122°29'3 2.6
2016-Jul-27 18:30N 47°41' W 122°30'3 0.1
2016-Jul-25 23:20N 47°44' W 122°33'1 1.7
2016-Jul-25 22:31N 47°44' W 122°31'3 2.9
2016-Jul-25 21:32N 47°46' W 122°28'3 3.2
2016-Jul-25 20:34N 47°48' W 122°24'3 3.4
2016-Jul-25 19:33N 47°51' W 122°22'4 4.0
2016-Jul-25 18:33N 47°55' W 122°20'3 3.1
2016-Jul-25 17:33N 47°58' W 122°18'24 0.9
2016-Jul-24 14:33N 48°20' W 122°32'8 0.2
2016-Jul-22 20:22N 48°28' W 122°31'4 4.3
2016-Jul-22 19:33N 48°31' W 122°35'  
Track history (hours):
 
Tides and Currents Weather Stations Pressure Air Temp Water Temp Dewpoint Dewpoint Depression Visibility Wind Speed Wind Dir Waves Ship Positions

Shearwater

Owner: Hunter, Graham B, Blaine, WA. More information available from US FCC via Universal Licensing System and Coast Guard Vessel Documentation Center.

Last reported at 2016-Jul-28 21:28 UTC. Time now 2016-Jul-30 13:07 UTC.
Position N 47°20' W 122°29'.

Length 9 m.

Type: Sailing vessel. MMSI: 367366470.

Date/timePositionNaut miles runAvg speedWind from/ knotsBaromVisibWave heightAir tempDewpointWater temp
2016-Jul-28 21:28N 47°20' W 122°29'3 3.5
2016-Jul-28 20:33N 47°22' W 122°25'3 2.7
2016-Jul-28 19:34N 47°24' W 122°23'4 4.1
2016-Jul-28 18:33N 47°28' W 122°24'7 3.4
2016-Jul-28 16:33N 47°35' W 122°25'0 0.2
2016-Jul-28 15:32N 47°35' W 122°24'2 2.0
2016-Jul-28 14:33N 47°37' W 122°24'2 0.1
2016-Jul-27 21:33N 47°35' W 122°25'2 2.1
2016-Jul-27 20:33N 47°37' W 122°27'2 2.1
2016-Jul-27 19:34N 47°38' W 122°29'3 2.6
2016-Jul-27 18:30N 47°41' W 122°30'3 0.1
2016-Jul-25 23:20N 47°44' W 122°33'1 1.7
2016-Jul-25 22:31N 47°44' W 122°31'3 2.9
2016-Jul-25 21:32N 47°46' W 122°28'3 3.2
2016-Jul-25 20:34N 47°48' W 122°24'3 3.4
2016-Jul-25 19:33N 47°51' W 122°22'4 4.0
2016-Jul-25 18:33N 47°55' W 122°20'3 3.1
2016-Jul-25 17:33N 47°58' W 122°18'24 0.9
2016-Jul-24 14:33N 48°20' W 122°32'8 0.2
2016-Jul-22 20:22N 48°28' W 122°31'4 4.3
2016-Jul-22 19:33N 48°31' W 122°35'  

Dump ship's entire track history